sensor_id;sensor_type;location;lat;lon;timestamp;P1;durP1;ratioP1;P2;durP2;ratioP2
75426;SDS011;64007;50.632;13.700;2023-10-09T00:02:07;10.68;;;2.70;;
75426;SDS011;64007;50.632;13.700;2023-10-09T00:04:35;8.18;;;2.40;;
75426;SDS011;64007;50.632;13.700;2023-10-09T00:07:07;5.03;;;2.45;;
75426;SDS011;64007;50.632;13.700;2023-10-09T00:09:36;8.75;;;2.50;;
75426;SDS011;64007;50.632;13.700;2023-10-09T00:12:23;7.93;;;2.53;;
75426;SDS011;64007;50.632;13.700;2023-10-09T00:14:48;5.88;;;2.20;;
75426;SDS011;64007;50.632;13.700;2023-10-09T00:17:16;6.75;;;2.60;;
75426;SDS011;64007;50.632;13.700;2023-10-09T00:19:45;9.90;;;2.35;;
75426;SDS011;64007;50.632;13.700;2023-10-09T00:22:17;9.35;;;2.67;;
75426;SDS011;64007;50.632;13.700;2023-10-09T00:24:49;8.48;;;2.65;;
75426;SDS011;64007;50.632;13.700;2023-10-09T00:27:25;11.48;;;2.47;;
75426;SDS011;64007;50.632;13.700;2023-10-09T00:29:52;5.47;;;2.50;;
75426;SDS011;64007;50.632;13.700;2023-10-09T00:32:20;6.30;;;2.92;;
75426;SDS011;64007;50.632;13.700;2023-10-09T00:34:51;7.50;;;2.40;;
75426;SDS011;64007;50.632;13.700;2023-10-09T00:37:18;6.70;;;2.10;;
75426;SDS011;64007;50.632;13.700;2023-10-09T00:39:48;9.80;;;2.60;;
75426;SDS011;64007;50.632;13.700;2023-10-09T00:42:21;7.75;;;2.50;;
75426;SDS011;64007;50.632;13.700;2023-10-09T00:45:01;10.30;;;2.45;;
75426;SDS011;64007;50.632;13.700;2023-10-09T00:47:31;6.03;;;2.33;;
75426;SDS011;64007;50.632;13.700;2023-10-09T00:50:03;5.40;;;2.47;;
75426;SDS011;64007;50.632;13.700;2023-10-09T00:52:41;7.88;;;2.88;;
75426;SDS011;64007;50.632;13.700;2023-10-09T00:55:14;5.10;;;2.40;;
75426;SDS011;64007;50.632;13.700;2023-10-09T00:57:47;9.25;;;2.30;;
75426;SDS011;64007;50.632;13.700;2023-10-09T01:00:24;10.68;;;2.38;;
75426;SDS011;64007;50.632;13.700;2023-10-09T01:03:11;6.40;;;2.42;;
75426;SDS011;64007;50.632;13.700;2023-10-09T01:05:50;5.07;;;2.30;;
75426;SDS011;64007;50.632;13.700;2023-10-09T01:11:05;10.43;;;2.30;;
75426;SDS011;64007;50.632;13.700;2023-10-09T01:13:44;5.95;;;2.40;;
75426;SDS011;64007;50.632;13.700;2023-10-09T01:16:11;5.35;;;2.30;;
75426;SDS011;64007;50.632;13.700;2023-10-09T01:18:43;4.25;;;2.30;;
75426;SDS011;64007;50.632;13.700;2023-10-09T01:21:10;6.72;;;2.25;;
75426;SDS011;64007;50.632;13.700;2023-10-09T01:23:42;4.35;;;2.20;;
75426;SDS011;64007;50.632;13.700;2023-10-09T01:26:28;9.02;;;3.05;;
75426;SDS011;64007;50.632;13.700;2023-10-09T01:28:58;6.72;;;2.80;;
75426;SDS011;64007;50.632;13.700;2023-10-09T01:31:25;7.25;;;2.10;;
75426;SDS011;64007;50.632;13.700;2023-10-09T01:33:52;4.32;;;2.25;;
75426;SDS011;64007;50.632;13.700;2023-10-09T01:36:27;8.13;;;2.65;;
75426;SDS011;64007;50.632;13.700;2023-10-09T01:38:59;5.57;;;3.00;;
75426;SDS011;64007;50.632;13.700;2023-10-09T01:41:52;10.40;;;2.92;;
75426;SDS011;64007;50.632;13.700;2023-10-09T01:44:26;7.03;;;2.50;;
75426;SDS011;64007;50.632;13.700;2023-10-09T01:46:56;9.05;;;5.28;;
75426;SDS011;64007;50.632;13.700;2023-10-09T01:49:24;16.17;;;7.95;;
75426;SDS011;64007;50.632;13.700;2023-10-09T01:51:57;12.32;;;5.32;;
75426;SDS011;64007;50.632;13.700;2023-10-09T01:54:32;11.88;;;5.63;;
75426;SDS011;64007;50.632;13.700;2023-10-09T01:57:07;17.50;;;7.90;;
75426;SDS011;64007;50.632;13.700;2023-10-09T01:59:48;17.35;;;9.15;;
75426;SDS011;64007;50.632;13.700;2023-10-09T02:02:18;18.90;;;9.88;;
75426;SDS011;64007;50.632;13.700;2023-10-09T02:04:59;15.07;;;8.27;;
75426;SDS011;64007;50.632;13.700;2023-10-09T02:07:37;14.10;;;6.35;;
75426;SDS011;64007;50.632;13.700;2023-10-09T02:10:10;13.48;;;4.82;;
75426;SDS011;64007;50.632;13.700;2023-10-09T02:13:00;12.48;;;3.80;;
75426;SDS011;64007;50.632;13.700;2023-10-09T02:15:33;14.73;;;3.75;;
75426;SDS011;64007;50.632;13.700;2023-10-09T02:18:19;9.52;;;3.72;;
75426;SDS011;64007;50.632;13.700;2023-10-09T02:20:50;8.30;;;3.70;;
75426;SDS011;64007;50.632;13.700;2023-10-09T02:23:30;12.93;;;3.63;;
75426;SDS011;64007;50.632;13.700;2023-10-09T02:26:12;8.20;;;3.47;;
75426;SDS011;64007;50.632;13.700;2023-10-09T02:28:51;7.10;;;3.28;;
75426;SDS011;64007;50.632;13.700;2023-10-09T02:31:49;6.32;;;3.72;;
75426;SDS011;64007;50.632;13.700;2023-10-09T02:34:25;7.28;;;3.80;;
75426;SDS011;64007;50.632;13.700;2023-10-09T02:36:53;7.90;;;4.15;;
75426;SDS011;64007;50.632;13.700;2023-10-09T02:39:30;9.68;;;3.78;;
75426;SDS011;64007;50.632;13.700;2023-10-09T02:42:02;8.50;;;3.83;;
75426;SDS011;64007;50.632;13.700;2023-10-09T02:44:48;8.52;;;3.67;;
75426;SDS011;64007;50.632;13.700;2023-10-09T02:47:18;9.50;;;3.95;;
75426;SDS011;64007;50.632;13.700;2023-10-09T02:49:55;8.00;;;3.67;;
75426;SDS011;64007;50.632;13.700;2023-10-09T02:52:26;9.55;;;4.40;;
75426;SDS011;64007;50.632;13.700;2023-10-09T02:54:57;8.43;;;3.75;;
75426;SDS011;64007;50.632;13.700;2023-10-09T02:57:31;14.07;;;3.95;;
75426;SDS011;64007;50.632;13.700;2023-10-09T03:00:07;14.10;;;4.68;;
75426;SDS011;64007;50.632;13.700;2023-10-09T03:02:44;11.70;;;4.43;;
75426;SDS011;64007;50.632;13.700;2023-10-09T03:05:11;7.32;;;3.97;;
75426;SDS011;64007;50.632;13.700;2023-10-09T03:07:38;12.68;;;4.70;;
75426;SDS011;64007;50.632;13.700;2023-10-09T03:10:05;10.68;;;4.40;;
75426;SDS011;64007;50.632;13.700;2023-10-09T03:12:38;10.32;;;3.83;;
75426;SDS011;64007;50.632;13.700;2023-10-09T03:15:04;9.02;;;4.45;;
75426;SDS011;64007;50.632;13.700;2023-10-09T03:17:34;8.88;;;3.67;;
75426;SDS011;64007;50.632;13.700;2023-10-09T03:20:06;7.90;;;3.85;;
75426;SDS011;64007;50.632;13.700;2023-10-09T03:22:38;9.70;;;4.15;;
75426;SDS011;64007;50.632;13.700;2023-10-09T03:25:05;11.60;;;4.03;;
75426;SDS011;64007;50.632;13.700;2023-10-09T03:27:40;8.57;;;3.88;;
75426;SDS011;64007;50.632;13.700;2023-10-09T03:30:17;15.13;;;4.05;;
75426;SDS011;64007;50.632;13.700;2023-10-09T03:32:48;8.85;;;4.00;;
75426;SDS011;64007;50.632;13.700;2023-10-09T03:35:18;10.82;;;4.57;;
75426;SDS011;64007;50.632;13.700;2023-10-09T03:37:52;11.18;;;4.88;;
75426;SDS011;64007;50.632;13.700;2023-10-09T03:40:40;10.15;;;4.20;;
75426;SDS011;64007;50.632;13.700;2023-10-09T03:43:10;8.10;;;4.20;;
75426;SDS011;64007;50.632;13.700;2023-10-09T03:45:36;13.70;;;4.32;;
75426;SDS011;64007;50.632;13.700;2023-10-09T03:48:04;7.47;;;3.88;;
75426;SDS011;64007;50.632;13.700;2023-10-09T03:51:02;11.57;;;3.88;;
75426;SDS011;64007;50.632;13.700;2023-10-09T03:53:38;11.18;;;4.95;;
75426;SDS011;64007;50.632;13.700;2023-10-09T03:56:05;10.50;;;4.82;;
75426;SDS011;64007;50.632;13.700;2023-10-09T03:58:38;8.55;;;4.47;;
75426;SDS011;64007;50.632;13.700;2023-10-09T04:01:20;11.02;;;4.60;;
75426;SDS011;64007;50.632;13.700;2023-10-09T04:03:54;8.48;;;4.40;;
75426;SDS011;64007;50.632;13.700;2023-10-09T04:06:23;10.40;;;4.68;;
75426;SDS011;64007;50.632;13.700;2023-10-09T04:09:03;10.52;;;4.43;;
75426;SDS011;64007;50.632;13.700;2023-10-09T04:12:02;14.20;;;5.22;;
75426;SDS011;64007;50.632;13.700;2023-10-09T04:14:37;17.65;;;5.20;;
75426;SDS011;64007;50.632;13.700;2023-10-09T04:17:13;9.68;;;4.85;;
75426;SDS011;64007;50.632;13.700;2023-10-09T04:19:48;14.75;;;4.90;;
75426;SDS011;64007;50.632;13.700;2023-10-09T04:22:14;10.73;;;4.63;;
75426;SDS011;64007;50.632;13.700;2023-10-09T04:24:51;11.90;;;4.72;;
75426;SDS011;64007;50.632;13.700;2023-10-09T04:27:17;8.70;;;4.53;;
75426;SDS011;64007;50.632;13.700;2023-10-09T04:29:42;8.43;;;4.38;;
75426;SDS011;64007;50.632;13.700;2023-10-09T04:32:12;11.13;;;4.70;;
75426;SDS011;64007;50.632;13.700;2023-10-09T04:34:42;14.20;;;4.60;;
75426;SDS011;64007;50.632;13.700;2023-10-09T04:37:14;8.02;;;4.82;;
75426;SDS011;64007;50.632;13.700;2023-10-09T04:39:41;12.80;;;5.03;;
75426;SDS011;64007;50.632;13.700;2023-10-09T04:42:16;17.52;;;5.35;;
75426;SDS011;64007;50.632;13.700;2023-10-09T04:44:50;12.60;;;5.47;;
75426;SDS011;64007;50.632;13.700;2023-10-09T04:47:45;13.77;;;5.50;;
75426;SDS011;64007;50.632;13.700;2023-10-09T04:50:24;11.73;;;6.00;;
75426;SDS011;64007;50.632;13.700;2023-10-09T04:52:55;12.90;;;5.82;;
75426;SDS011;64007;50.632;13.700;2023-10-09T04:55:21;12.93;;;5.25;;
75426;SDS011;64007;50.632;13.700;2023-10-09T04:57:50;11.57;;;5.13;;
75426;SDS011;64007;50.632;13.700;2023-10-09T05:00:39;15.82;;;5.05;;
75426;SDS011;64007;50.632;13.700;2023-10-09T05:03:07;13.38;;;5.30;;
75426;SDS011;64007;50.632;13.700;2023-10-09T05:05:36;14.85;;;5.07;;
75426;SDS011;64007;50.632;13.700;2023-10-09T05:10:47;10.65;;;5.10;;
75426;SDS011;64007;50.632;13.700;2023-10-09T05:13:25;12.25;;;5.55;;
75426;SDS011;64007;50.632;13.700;2023-10-09T05:16:10;13.57;;;6.13;;
75426;SDS011;64007;50.632;13.700;2023-10-09T05:18:45;11.65;;;6.03;;
75426;SDS011;64007;50.632;13.700;2023-10-09T05:21:24;9.95;;;5.47;;
75426;SDS011;64007;50.632;13.700;2023-10-09T05:23:58;12.10;;;5.88;;
75426;SDS011;64007;50.632;13.700;2023-10-09T05:31:56;14.35;;;5.65;;
75426;SDS011;64007;50.632;13.700;2023-10-09T05:34:28;18.30;;;6.97;;
75426;SDS011;64007;50.632;13.700;2023-10-09T05:37:05;18.95;;;6.82;;
75426;SDS011;64007;50.632;13.700;2023-10-09T05:39:50;13.98;;;6.82;;
75426;SDS011;64007;50.632;13.700;2023-10-09T05:42:29;15.82;;;7.40;;
75426;SDS011;64007;50.632;13.700;2023-10-09T05:45:08;13.90;;;7.97;;
75426;SDS011;64007;50.632;13.700;2023-10-09T05:47:54;14.93;;;7.28;;
75426;SDS011;64007;50.632;13.700;2023-10-09T05:50:42;12.10;;;7.20;;
75426;SDS011;64007;50.632;13.700;2023-10-09T05:56:10;16.27;;;7.38;;
75426;SDS011;64007;50.632;13.700;2023-10-09T05:58:55;16.05;;;7.70;;
75426;SDS011;64007;50.632;13.700;2023-10-09T06:01:39;19.35;;;7.57;;
75426;SDS011;64007;50.632;13.700;2023-10-09T06:04:24;13.52;;;6.30;;
75426;SDS011;64007;50.632;13.700;2023-10-09T06:07:08;12.85;;;6.30;;
75426;SDS011;64007;50.632;13.700;2023-10-09T06:09:38;15.27;;;6.63;;
75426;SDS011;64007;50.632;13.700;2023-10-09T06:12:20;15.80;;;5.85;;
75426;SDS011;64007;50.632;13.700;2023-10-09T06:14:58;11.48;;;5.78;;
75426;SDS011;64007;50.632;13.700;2023-10-09T06:17:43;14.02;;;5.78;;
75426;SDS011;64007;50.632;13.700;2023-10-09T06:20:16;12.55;;;6.10;;
75426;SDS011;64007;50.632;13.700;2023-10-09T06:23:00;10.73;;;6.53;;
75426;SDS011;64007;50.632;13.700;2023-10-09T06:25:42;16.15;;;7.43;;
75426;SDS011;64007;50.632;13.700;2023-10-09T06:28:17;13.48;;;6.75;;
75426;SDS011;64007;50.632;13.700;2023-10-09T06:30:44;11.13;;;6.55;;
75426;SDS011;64007;50.632;13.700;2023-10-09T06:33:12;15.18;;;6.20;;
75426;SDS011;64007;50.632;13.700;2023-10-09T06:35:45;13.30;;;7.38;;
75426;SDS011;64007;50.632;13.700;2023-10-09T06:38:20;12.25;;;6.93;;
75426;SDS011;64007;50.632;13.700;2023-10-09T06:40:59;19.63;;;7.22;;
75426;SDS011;64007;50.632;13.700;2023-10-09T06:43:27;12.95;;;7.10;;
75426;SDS011;64007;50.632;13.700;2023-10-09T06:45:54;12.75;;;6.93;;
75426;SDS011;64007;50.632;13.700;2023-10-09T06:48:24;19.00;;;7.45;;
75426;SDS011;64007;50.632;13.700;2023-10-09T06:51:06;12.68;;;7.35;;
75426;SDS011;64007;50.632;13.700;2023-10-09T07:16:27;22.02;;;10.85;;
75426;SDS011;64007;50.632;13.700;2023-10-09T07:18:55;24.50;;;10.63;;
75426;SDS011;64007;50.632;13.700;2023-10-09T07:25:13;26.30;;;10.90;;
75426;SDS011;64007;50.632;13.700;2023-10-09T07:36:06;18.48;;;9.98;;
75426;SDS011;64007;50.632;13.700;2023-10-09T07:38:14;24.15;;;10.88;;
75426;SDS011;64007;50.632;13.700;2023-10-09T07:54:25;22.80;;;12.07;;
75426;SDS011;64007;50.632;13.700;2023-10-09T07:58:02;18.50;;;10.60;;
75426;SDS011;64007;50.632;13.700;2023-10-09T08:01:06;19.35;;;10.18;;
75426;SDS011;64007;50.632;13.700;2023-10-09T08:03:52;17.90;;;8.05;;
75426;SDS011;64007;50.632;13.700;2023-10-09T08:07:03;24.20;;;8.85;;
75426;SDS011;64007;50.632;13.700;2023-10-09T08:10:10;16.10;;;8.13;;
75426;SDS011;64007;50.632;13.700;2023-10-09T08:12:39;14.02;;;7.43;;
75426;SDS011;64007;50.632;13.700;2023-10-09T08:15:43;19.55;;;8.15;;
75426;SDS011;64007;50.632;13.700;2023-10-09T08:18:38;18.63;;;8.45;;
75426;SDS011;64007;50.632;13.700;2023-10-09T08:23:41;16.25;;;8.77;;
75426;SDS011;64007;50.632;13.700;2023-10-09T08:26:14;26.05;;;11.77;;
75426;SDS011;64007;50.632;13.700;2023-10-09T08:28:53;30.60;;;13.13;;
75426;SDS011;64007;50.632;13.700;2023-10-09T08:31:46;34.03;;;14.30;;
75426;SDS011;64007;50.632;13.700;2023-10-09T08:34:12;26.17;;;13.98;;
75426;SDS011;64007;50.632;13.700;2023-10-09T08:36:50;27.55;;;12.98;;
75426;SDS011;64007;50.632;13.700;2023-10-09T08:39:22;23.60;;;12.93;;
75426;SDS011;64007;50.632;13.700;2023-10-09T08:41:51;20.17;;;9.65;;
75426;SDS011;64007;50.632;13.700;2023-10-09T08:44:19;22.45;;;8.77;;
75426;SDS011;64007;50.632;13.700;2023-10-09T08:46:50;19.30;;;8.98;;
75426;SDS011;64007;50.632;13.700;2023-10-09T08:49:16;17.80;;;8.82;;
75426;SDS011;64007;50.632;13.700;2023-10-09T08:51:47;15.75;;;8.63;;
75426;SDS011;64007;50.632;13.700;2023-10-09T08:54:26;17.75;;;9.23;;
75426;SDS011;64007;50.632;13.700;2023-10-09T08:56:52;17.65;;;8.68;;
75426;SDS011;64007;50.632;13.700;2023-10-09T08:59:21;24.73;;;8.70;;
75426;SDS011;64007;50.632;13.700;2023-10-09T09:01:47;26.83;;;9.73;;
75426;SDS011;64007;50.632;13.700;2023-10-09T09:07:27;16.65;;;8.63;;
75426;SDS011;64007;50.632;13.700;2023-10-09T09:09:57;16.65;;;8.02;;
75426;SDS011;64007;50.632;13.700;2023-10-09T09:15:32;15.38;;;7.72;;
75426;SDS011;64007;50.632;13.700;2023-10-09T09:18:07;18.85;;;8.70;;
75426;SDS011;64007;50.632;13.700;2023-10-09T09:21:02;19.70;;;9.68;;
75426;SDS011;64007;50.632;13.700;2023-10-09T09:23:58;21.88;;;8.73;;
75426;SDS011;64007;50.632;13.700;2023-10-09T09:26:46;21.35;;;8.65;;
75426;SDS011;64007;50.632;13.700;2023-10-09T09:29:13;18.65;;;8.90;;
75426;SDS011;64007;50.632;13.700;2023-10-09T09:32:02;17.27;;;8.45;;
75426;SDS011;64007;50.632;13.700;2023-10-09T09:35:12;15.18;;;8.35;;
75426;SDS011;64007;50.632;13.700;2023-10-09T09:37:51;23.95;;;8.90;;
75426;SDS011;64007;50.632;13.700;2023-10-09T09:40:20;17.23;;;9.27;;
75426;SDS011;64007;50.632;13.700;2023-10-09T09:43:01;19.65;;;8.85;;
75426;SDS011;64007;50.632;13.700;2023-10-09T09:45:40;26.33;;;10.05;;
75426;SDS011;64007;50.632;13.700;2023-10-09T09:48:14;18.52;;;9.20;;
75426;SDS011;64007;50.632;13.700;2023-10-09T09:50:44;16.17;;;8.30;;
75426;SDS011;64007;50.632;13.700;2023-10-09T09:55:50;17.65;;;9.13;;
75426;SDS011;64007;50.632;13.700;2023-10-09T09:58:23;16.27;;;8.77;;
75426;SDS011;64007;50.632;13.700;2023-10-09T10:01:03;19.75;;;8.38;;
75426;SDS011;64007;50.632;13.700;2023-10-09T10:03:42;16.15;;;8.27;;
75426;SDS011;64007;50.632;13.700;2023-10-09T10:06:12;16.85;;;7.28;;
75426;SDS011;64007;50.632;13.700;2023-10-09T10:08:40;16.25;;;7.57;;
75426;SDS011;64007;50.632;13.700;2023-10-09T10:11:07;14.07;;;6.90;;
75426;SDS011;64007;50.632;13.700;2023-10-09T10:13:54;11.23;;;5.35;;
75426;SDS011;64007;50.632;13.700;2023-10-09T10:16:26;11.63;;;5.30;;
75426;SDS011;64007;50.632;13.700;2023-10-09T10:19:03;11.13;;;6.25;;
75426;SDS011;64007;50.632;13.700;2023-10-09T10:21:47;11.57;;;5.78;;
75426;SDS011;64007;50.632;13.700;2023-10-09T10:25:01;10.73;;;5.82;;
75426;SDS011;64007;50.632;13.700;2023-10-09T10:27:21;12.35;;;5.75;;
75426;SDS011;64007;50.632;13.700;2023-10-09T10:35:18;19.38;;;9.55;;
75426;SDS011;64007;50.632;13.700;2023-10-09T10:38:18;30.75;;;9.50;;
75426;SDS011;64007;50.632;13.700;2023-10-09T10:40:50;17.30;;;8.00;;
75426;SDS011;64007;50.632;13.700;2023-10-09T10:43:39;19.65;;;8.43;;
75426;SDS011;64007;50.632;13.700;2023-10-09T10:46:22;8.82;;;5.10;;
75426;SDS011;64007;50.632;13.700;2023-10-09T10:48:49;10.10;;;5.22;;
75426;SDS011;64007;50.632;13.700;2023-10-09T10:51:23;8.90;;;4.60;;
75426;SDS011;64007;50.632;13.700;2023-10-09T10:54:01;7.18;;;4.10;;
75426;SDS011;64007;50.632;13.700;2023-10-09T10:56:47;18.83;;;5.47;;
75426;SDS011;64007;50.632;13.700;2023-10-09T10:59:13;9.60;;;4.93;;
75426;SDS011;64007;50.632;13.700;2023-10-09T11:01:48;6.88;;;3.95;;
75426;SDS011;64007;50.632;13.700;2023-10-09T11:04:27;8.48;;;4.43;;
75426;SDS011;64007;50.632;13.700;2023-10-09T11:06:59;11.57;;;4.50;;
75426;SDS011;64007;50.632;13.700;2023-10-09T11:09:51;8.63;;;3.78;;
75426;SDS011;64007;50.632;13.700;2023-10-09T11:12:42;8.00;;;4.00;;
75426;SDS011;64007;50.632;13.700;2023-10-09T11:18:09;9.15;;;4.15;;
75426;SDS011;64007;50.632;13.700;2023-10-09T11:20:49;8.82;;;3.60;;
75426;SDS011;64007;50.632;13.700;2023-10-09T11:23:28;8.57;;;4.72;;
75426;SDS011;64007;50.632;13.700;2023-10-09T11:26:05;15.55;;;5.45;;
75426;SDS011;64007;50.632;13.700;2023-10-09T11:29:11;9.07;;;4.22;;
75426;SDS011;64007;50.632;13.700;2023-10-09T11:32:05;11.20;;;4.70;;
75426;SDS011;64007;50.632;13.700;2023-10-09T11:34:45;6.88;;;4.03;;
75426;SDS011;64007;50.632;13.700;2023-10-09T11:37:24;13.88;;;5.07;;
75426;SDS011;64007;50.632;13.700;2023-10-09T11:39:56;8.65;;;4.30;;
75426;SDS011;64007;50.632;13.700;2023-10-09T11:42:29;7.50;;;4.00;;
75426;SDS011;64007;50.632;13.700;2023-10-09T11:45:20;9.90;;;4.40;;
75426;SDS011;64007;50.632;13.700;2023-10-09T11:47:54;9.25;;;4.07;;
75426;SDS011;64007;50.632;13.700;2023-10-09T11:50:43;8.68;;;4.10;;
75426;SDS011;64007;50.632;13.700;2023-10-09T11:53:19;10.15;;;4.57;;
75426;SDS011;64007;50.632;13.700;2023-10-09T11:55:58;6.70;;;3.85;;
75426;SDS011;64007;50.632;13.700;2023-10-09T11:58:28;6.82;;;4.43;;
75426;SDS011;64007;50.632;13.700;2023-10-09T12:00:55;7.03;;;3.90;;
75426;SDS011;64007;50.632;13.700;2023-10-09T12:03:29;7.95;;;3.78;;
75426;SDS011;64007;50.632;13.700;2023-10-09T12:05:56;7.93;;;3.88;;
75426;SDS011;64007;50.632;13.700;2023-10-09T12:08:23;8.70;;;4.30;;
75426;SDS011;64007;50.632;13.700;2023-10-09T12:10:52;10.13;;;4.38;;
75426;SDS011;64007;50.632;13.700;2023-10-09T12:13:21;12.48;;;4.68;;
75426;SDS011;64007;50.632;13.700;2023-10-09T12:15:49;11.07;;;4.93;;
75426;SDS011;64007;50.632;13.700;2023-10-09T12:18:19;8.35;;;4.70;;
75426;SDS011;64007;50.632;13.700;2023-10-09T12:20:49;7.93;;;4.32;;
75426;SDS011;64007;50.632;13.700;2023-10-09T12:23:27;11.18;;;4.22;;
75426;SDS011;64007;50.632;13.700;2023-10-09T12:25:53;9.07;;;3.83;;
75426;SDS011;64007;50.632;13.700;2023-10-09T12:28:22;9.07;;;4.15;;
75426;SDS011;64007;50.632;13.700;2023-10-09T12:30:48;10.40;;;4.63;;
75426;SDS011;64007;50.632;13.700;2023-10-09T12:33:18;10.73;;;3.72;;
75426;SDS011;64007;50.632;13.700;2023-10-09T12:35:45;8.13;;;4.07;;
75426;SDS011;64007;50.632;13.700;2023-10-09T12:38:12;9.05;;;3.85;;
75426;SDS011;64007;50.632;13.700;2023-10-09T12:40:44;14.65;;;4.03;;
75426;SDS011;64007;50.632;13.700;2023-10-09T12:45:47;5.93;;;2.88;;
75426;SDS011;64007;50.632;13.700;2023-10-09T12:48:13;7.18;;;2.63;;
75426;SDS011;64007;50.632;13.700;2023-10-09T12:50:40;11.55;;;2.95;;
75426;SDS011;64007;50.632;13.700;2023-10-09T12:53:13;13.30;;;3.10;;
75426;SDS011;64007;50.632;13.700;2023-10-09T12:55:43;5.53;;;2.30;;
75426;SDS011;64007;50.632;13.700;2023-10-09T12:58:15;9.55;;;2.65;;
75426;SDS011;64007;50.632;13.700;2023-10-09T13:00:41;6.57;;;2.10;;
75426;SDS011;64007;50.632;13.700;2023-10-09T13:03:15;6.47;;;2.28;;
75426;SDS011;64007;50.632;13.700;2023-10-09T13:05:53;4.97;;;2.42;;
75426;SDS011;64007;50.632;13.700;2023-10-09T13:08:26;7.15;;;2.47;;
75426;SDS011;64007;50.632;13.700;2023-10-09T13:11:03;7.45;;;3.08;;
75426;SDS011;64007;50.632;13.700;2023-10-09T13:13:36;8.15;;;2.60;;
75426;SDS011;64007;50.632;13.700;2023-10-09T13:18:38;13.15;;;6.60;;
75426;SDS011;64007;50.632;13.700;2023-10-09T13:21:05;12.65;;;6.25;;
75426;SDS011;64007;50.632;13.700;2023-10-09T13:23:31;13.70;;;6.93;;
75426;SDS011;64007;50.632;13.700;2023-10-09T13:26:07;14.15;;;8.55;;
75426;SDS011;64007;50.632;13.700;2023-10-09T13:28:46;16.15;;;8.18;;
75426;SDS011;64007;50.632;13.700;2023-10-09T13:31:17;14.52;;;8.75;;
75426;SDS011;64007;50.632;13.700;2023-10-09T13:33:44;14.85;;;9.40;;
75426;SDS011;64007;50.632;13.700;2023-10-09T13:36:11;13.88;;;8.43;;
75426;SDS011;64007;50.632;13.700;2023-10-09T13:41:48;19.02;;;8.07;;
75426;SDS011;64007;50.632;13.700;2023-10-09T13:44:29;11.60;;;6.93;;
75426;SDS011;64007;50.632;13.700;2023-10-09T13:47:00;15.73;;;8.30;;
75426;SDS011;64007;50.632;13.700;2023-10-09T13:49:30;15.50;;;8.88;;
75426;SDS011;64007;50.632;13.700;2023-10-09T13:51:57;12.20;;;7.95;;
75426;SDS011;64007;50.632;13.700;2023-10-09T13:54:27;19.95;;;12.20;;
75426;SDS011;64007;50.632;13.700;2023-10-09T13:57:05;18.38;;;9.93;;
75426;SDS011;64007;50.632;13.700;2023-10-09T13:59:36;11.73;;;6.78;;
75426;SDS011;64007;50.632;13.700;2023-10-09T14:02:17;9.55;;;4.72;;
75426;SDS011;64007;50.632;13.700;2023-10-09T14:04:44;12.98;;;4.47;;
75426;SDS011;64007;50.632;13.700;2023-10-09T14:07:14;10.38;;;4.20;;
75426;SDS011;64007;50.632;13.700;2023-10-09T14:09:45;9.38;;;3.80;;
75426;SDS011;64007;50.632;13.700;2023-10-09T14:12:21;5.03;;;2.80;;
75426;SDS011;64007;50.632;13.700;2023-10-09T14:14:58;4.70;;;2.35;;
75426;SDS011;64007;50.632;13.700;2023-10-09T14:17:25;6.80;;;2.67;;
75426;SDS011;64007;50.632;13.700;2023-10-09T14:19:56;9.13;;;2.03;;
75426;SDS011;64007;50.632;13.700;2023-10-09T14:23:04;6.50;;;2.17;;
75426;SDS011;64007;50.632;13.700;2023-10-09T14:25:35;5.95;;;2.38;;
75426;SDS011;64007;50.632;13.700;2023-10-09T14:28:09;4.35;;;2.03;;
75426;SDS011;64007;50.632;13.700;2023-10-09T14:30:35;4.30;;;1.90;;
75426;SDS011;64007;50.632;13.700;2023-10-09T14:33:10;4.85;;;2.35;;
75426;SDS011;64007;50.632;13.700;2023-10-09T14:35:43;4.00;;;1.90;;
75426;SDS011;64007;50.632;13.700;2023-10-09T14:38:10;4.77;;;1.83;;
75426;SDS011;64007;50.632;13.700;2023-10-09T14:40:53;5.50;;;3.67;;
75426;SDS011;64007;50.632;13.700;2023-10-09T14:43:25;4.35;;;2.05;;
75426;SDS011;64007;50.632;13.700;2023-10-09T14:45:58;5.78;;;2.45;;
75426;SDS011;64007;50.632;13.700;2023-10-09T14:48:24;4.80;;;2.20;;
75426;SDS011;64007;50.632;13.700;2023-10-09T14:50:54;3.53;;;1.77;;
75426;SDS011;64007;50.632;13.700;2023-10-09T14:53:20;6.15;;;3.83;;
75426;SDS011;64007;50.632;13.700;2023-10-09T14:55:53;11.23;;;7.65;;
75426;SDS011;64007;50.632;13.700;2023-10-09T14:58:22;9.43;;;3.13;;
75426;SDS011;64007;50.632;13.700;2023-10-09T15:00:54;11.35;;;2.75;;
75426;SDS011;64007;50.632;13.700;2023-10-09T15:03:20;6.28;;;1.70;;
75426;SDS011;64007;50.632;13.700;2023-10-09T15:05:47;6.28;;;2.33;;
75426;SDS011;64007;50.632;13.700;2023-10-09T15:08:21;5.68;;;2.80;;
75426;SDS011;64007;50.632;13.700;2023-10-09T15:10:47;10.93;;;2.20;;
75426;SDS011;64007;50.632;13.700;2023-10-09T15:13:14;4.72;;;2.17;;
75426;SDS011;64007;50.632;13.700;2023-10-09T15:15:43;5.55;;;3.08;;
75426;SDS011;64007;50.632;13.700;2023-10-09T15:18:16;8.68;;;2.58;;
75426;SDS011;64007;50.632;13.700;2023-10-09T15:20:54;7.90;;;2.83;;
75426;SDS011;64007;50.632;13.700;2023-10-09T15:23:20;3.70;;;1.70;;
75426;SDS011;64007;50.632;13.700;2023-10-09T15:25:47;4.45;;;1.35;;
75426;SDS011;64007;50.632;13.700;2023-10-09T15:28:21;4.22;;;2.38;;
75426;SDS011;64007;50.632;13.700;2023-10-09T15:30:48;2.78;;;1.60;;
75426;SDS011;64007;50.632;13.700;2023-10-09T15:33:16;3.50;;;1.60;;
75426;SDS011;64007;50.632;13.700;2023-10-09T15:35:44;4.25;;;1.60;;
75426;SDS011;64007;50.632;13.700;2023-10-09T15:38:15;5.57;;;2.42;;
75426;SDS011;64007;50.632;13.700;2023-10-09T15:40:41;8.77;;;3.10;;
75426;SDS011;64007;50.632;13.700;2023-10-09T15:43:09;5.00;;;1.70;;
75426;SDS011;64007;50.632;13.700;2023-10-09T15:45:47;3.08;;;1.63;;
75426;SDS011;64007;50.632;13.700;2023-10-09T15:48:16;3.25;;;1.60;;
75426;SDS011;64007;50.632;13.700;2023-10-09T15:50:44;4.25;;;2.13;;
75426;SDS011;64007;50.632;13.700;2023-10-09T15:53:15;6.97;;;3.20;;
75426;SDS011;64007;50.632;13.700;2023-10-09T15:55:44;4.78;;;2.50;;
75426;SDS011;64007;50.632;13.700;2023-10-09T15:58:10;4.30;;;1.85;;
75426;SDS011;64007;50.632;13.700;2023-10-09T16:00:37;6.05;;;1.88;;
75426;SDS011;64007;50.632;13.700;2023-10-09T16:03:03;5.53;;;2.40;;
75426;SDS011;64007;50.632;13.700;2023-10-09T16:05:33;7.82;;;2.80;;
75426;SDS011;64007;50.632;13.700;2023-10-09T16:08:04;5.38;;;3.03;;
75426;SDS011;64007;50.632;13.700;2023-10-09T16:10:30;8.73;;;3.38;;
75426;SDS011;64007;50.632;13.700;2023-10-09T16:13:00;5.70;;;2.95;;
75426;SDS011;64007;50.632;13.700;2023-10-09T16:15:26;6.07;;;3.20;;
75426;SDS011;64007;50.632;13.700;2023-10-09T16:17:53;3.75;;;2.47;;
75426;SDS011;64007;50.632;13.700;2023-10-09T16:20:31;6.20;;;2.83;;
75426;SDS011;64007;50.632;13.700;2023-10-09T16:22:58;6.57;;;3.05;;
75426;SDS011;64007;50.632;13.700;2023-10-09T16:25:24;4.43;;;2.63;;
75426;SDS011;64007;50.632;13.700;2023-10-09T16:27:52;8.20;;;3.75;;
75426;SDS011;64007;50.632;13.700;2023-10-09T16:30:19;9.15;;;3.30;;
75426;SDS011;64007;50.632;13.700;2023-10-09T16:32:50;6.07;;;3.22;;
75426;SDS011;64007;50.632;13.700;2023-10-09T16:35:19;7.93;;;3.88;;
75426;SDS011;64007;50.632;13.700;2023-10-09T16:37:48;6.65;;;3.00;;
75426;SDS011;64007;50.632;13.700;2023-10-09T16:40:18;13.25;;;4.43;;